Terminal Aerodrome Forecast
Issued by NWS

Home | Current Version | Previous Version | Text Only | Print | Product List | Glossary On
Versions: 1 2 3 4 5 6 7 8 9 10 11 12 13
000
FTUS44 KLZK 051100
TAFLIT
TAF
KLIT 051120Z 0512/0612 15004KT P6SM SCT060 BKN100
      TEMPO 0512/0514 BKN060
     FM051500 16008G15KT P6SM SCT060 SCT250
     FM060100 15008KT P6SM SCT250=

USA.gov is the U.S. government's official web portal to all federal, state and local government web resources and services.